createdAt,value
2023-12-05T00:02:28.463Z,8.60
2023-12-05T00:04:57.193Z,7.87
2023-12-05T00:07:26.946Z,9.40
2023-12-05T00:09:55.714Z,8.30
2023-12-05T00:12:24.994Z,9.80
2023-12-05T00:14:55.209Z,9.10
2023-12-05T00:17:23.804Z,9.30
2023-12-05T00:19:52.467Z,9.20
2023-12-05T00:22:21.095Z,8.67
2023-12-05T00:24:49.756Z,9.27
2023-12-05T00:27:18.716Z,9.10
2023-12-05T00:29:48.508Z,7.90
2023-12-05T00:32:18.612Z,9.20
2023-12-05T00:34:47.510Z,9.83
2023-12-05T00:37:16.233Z,9.70
2023-12-05T00:39:45.034Z,9.03
2023-12-05T00:42:13.823Z,9.07
2023-12-05T00:44:42.458Z,9.60
2023-12-05T00:47:11.062Z,9.70
2023-12-05T00:49:41.256Z,8.57
2023-12-05T00:52:09.887Z,10.03
2023-12-05T00:54:38.791Z,10.10
2023-12-05T00:57:08.149Z,9.10
2023-12-05T00:59:36.752Z,10.67
2023-12-05T01:02:05.740Z,10.40
2023-12-05T01:04:35.052Z,9.27
2023-12-05T01:07:05.738Z,9.77
2023-12-05T01:09:34.579Z,9.60
2023-12-05T01:12:03.951Z,9.20
2023-12-05T01:14:33.024Z,9.63
2023-12-05T01:17:01.656Z,9.77
2023-12-05T01:19:30.379Z,10.07
2023-12-05T01:22:00.080Z,9.13
2023-12-05T01:24:30.286Z,9.77
2023-12-05T01:26:58.935Z,9.97
2023-12-05T01:29:27.637Z,9.03
2023-12-05T01:31:56.375Z,9.07
2023-12-05T01:34:25.818Z,8.77
2023-12-05T01:36:54.795Z,9.20
2023-12-05T01:39:23.711Z,9.70
2023-12-05T01:41:53.807Z,8.53
2023-12-05T01:44:22.605Z,9.27
2023-12-05T01:46:51.329Z,8.70
2023-12-05T01:49:26.624Z,8.50
2023-12-05T01:51:59.101Z,9.27
2023-12-05T01:54:28.058Z,9.50
2023-12-05T01:56:58.487Z,8.93
2023-12-05T01:59:27.083Z,9.60
2023-12-05T02:01:55.953Z,8.83
2023-12-05T02:04:24.730Z,9.40
2023-12-05T02:06:53.448Z,9.70
2023-12-05T02:09:22.457Z,9.23
2023-12-05T02:11:51.158Z,10.13
2023-12-05T02:14:21.930Z,10.07
2023-12-05T02:16:54.526Z,9.40
2023-12-05T02:19:43.575Z,9.67
2023-12-05T02:22:16.005Z,9.57
2023-12-05T02:24:49.376Z,10.27
2023-12-05T02:27:22.488Z,9.70
2023-12-05T02:29:53.091Z,9.77
2023-12-05T02:32:22.072Z,10.50
2023-12-05T02:34:51.316Z,10.47
2023-12-05T02:37:22.616Z,10.57
2023-12-05T02:39:56.041Z,10.87
2023-12-05T02:42:25.242Z,9.80
2023-12-05T02:44:55.713Z,10.40
2023-12-05T02:47:25.769Z,10.17
2023-12-05T02:49:54.464Z,10.03
2023-12-05T02:52:23.942Z,10.57
2023-12-05T02:54:52.777Z,11.43
2023-12-05T02:57:21.524Z,9.57
2023-12-05T02:59:50.641Z,9.50
2023-12-05T03:02:20.694Z,10.77
2023-12-05T03:04:49.409Z,10.73
2023-12-05T03:07:18.212Z,10.10
2023-12-05T03:09:47.611Z,10.10
2023-12-05T03:12:16.470Z,10.10
2023-12-05T03:14:45.205Z,10.77
2023-12-05T03:17:13.896Z,10.57
2023-12-05T03:19:44.181Z,9.80
2023-12-05T03:22:13.026Z,10.73
2023-12-05T03:24:42.101Z,10.40
2023-12-05T03:27:10.784Z,10.60
2023-12-05T03:29:39.524Z,9.80
2023-12-05T03:32:09.113Z,9.83
2023-12-05T03:34:37.881Z,9.73
2023-12-05T03:37:08.527Z,10.10
2023-12-05T03:39:37.524Z,9.27
2023-12-05T03:42:06.460Z,9.60
2023-12-05T03:44:35.152Z,9.57
2023-12-05T03:47:03.843Z,9.30
2023-12-05T03:49:32.611Z,9.40
2023-12-05T03:52:02.706Z,9.30
2023-12-05T03:54:32.928Z,10.27
2023-12-05T03:57:01.593Z,9.50
2023-12-05T03:59:30.289Z,8.77
2023-12-05T04:01:58.938Z,9.87
2023-12-05T04:04:27.805Z,9.50
2023-12-05T04:06:56.863Z,9.43
2023-12-05T04:09:25.783Z,9.70
2023-12-05T04:11:55.910Z,9.13
2023-12-05T04:14:24.905Z,9.77
2023-12-05T04:16:53.567Z,9.20
2023-12-05T04:19:22.321Z,9.37
2023-12-05T04:21:51.044Z,9.53
2023-12-05T04:24:19.739Z,8.17
2023-12-05T04:26:49.317Z,9.83
2023-12-05T04:29:19.416Z,8.80
2023-12-05T04:31:48.072Z,9.53
2023-12-05T04:34:16.804Z,9.80
2023-12-05T04:36:46.438Z,9.97
2023-12-05T04:39:15.357Z,10.40
2023-12-05T04:41:43.979Z,9.87
2023-12-05T04:44:12.703Z,9.07
2023-12-05T04:46:43.202Z,9.00
2023-12-05T04:49:12.238Z,9.07
2023-12-05T04:51:42.074Z,9.43
2023-12-05T04:54:10.760Z,10.27
2023-12-05T04:56:39.508Z,9.47
2023-12-05T04:59:08.228Z,9.87
2023-12-05T05:01:36.919Z,9.57
2023-12-05T05:04:07.628Z,9.27
2023-12-05T05:06:36.743Z,10.20
2023-12-05T05:09:05.815Z,8.70
2023-12-05T05:11:34.389Z,8.90
2023-12-05T05:14:05.336Z,8.60
2023-12-05T05:16:34.178Z,9.07
2023-12-05T05:19:03.218Z,10.13
2023-12-05T05:21:33.421Z,9.37
2023-12-05T05:24:02.256Z,9.43
2023-12-05T05:26:31.054Z,9.37
2023-12-05T05:28:59.628Z,9.37
2023-12-05T05:31:28.649Z,8.83
2023-12-05T05:33:57.732Z,9.03
2023-12-05T05:36:26.419Z,8.00
2023-12-05T05:38:56.460Z,9.13
2023-12-05T05:41:25.356Z,8.33
2023-12-05T05:43:54.335Z,8.67
2023-12-05T05:46:22.956Z,8.53
2023-12-05T05:48:51.672Z,9.07
2023-12-05T05:51:20.389Z,8.33
2023-12-05T05:53:49.087Z,8.47
2023-12-05T05:56:19.209Z,9.00
2023-12-05T05:58:48.885Z,8.47
2023-12-05T06:01:17.628Z,8.47
2023-12-05T06:03:46.704Z,9.63
2023-12-05T06:06:15.685Z,8.53
2023-12-05T06:08:44.712Z,8.27
2023-12-05T06:11:13.287Z,8.00
2023-12-05T06:13:43.957Z,8.10
2023-12-05T06:16:13.079Z,7.93
2023-12-05T06:18:41.786Z,8.63
2023-12-05T06:21:10.846Z,8.33
2023-12-05T06:23:40.308Z,8.23
2023-12-05T06:26:09.820Z,9.03
2023-12-05T06:28:38.473Z,8.17
2023-12-05T06:31:09.852Z,8.27
2023-12-05T06:33:38.720Z,9.10
2023-12-05T06:36:08.271Z,9.07
2023-12-05T06:38:36.985Z,9.50
2023-12-05T06:41:06.546Z,8.87
2023-12-05T06:43:35.197Z,9.43
2023-12-05T06:46:03.875Z,9.43
2023-12-05T06:48:34.500Z,8.93
2023-12-05T06:51:03.814Z,9.97
2023-12-05T06:53:35.221Z,9.10
2023-12-05T06:56:04.113Z,11.00
2023-12-05T06:58:33.582Z,9.83
2023-12-05T07:01:02.286Z,9.47
2023-12-05T07:03:32.362Z,10.30
2023-12-05T07:06:05.962Z,8.67
2023-12-05T07:08:35.669Z,9.50
2023-12-05T07:11:04.294Z,9.37
2023-12-05T07:13:32.867Z,10.17
2023-12-05T07:16:01.476Z,10.07
2023-12-05T07:18:30.188Z,9.33
2023-12-05T07:20:59.179Z,9.97
2023-12-05T07:23:29.881Z,9.57
2023-12-05T07:25:58.502Z,10.53
2023-12-05T07:28:27.161Z,9.27
2023-12-05T07:30:56.027Z,8.73
2023-12-05T07:33:24.882Z,9.03
2023-12-05T07:35:53.917Z,8.70
2023-12-05T07:38:22.561Z,10.03
2023-12-05T07:40:53.705Z,8.73
2023-12-05T07:43:22.429Z,9.30
2023-12-05T07:45:51.065Z,8.57
2023-12-05T07:48:20.223Z,9.70
2023-12-05T07:50:49.134Z,10.07
2023-12-05T07:53:17.874Z,10.10
2023-12-05T07:55:46.543Z,10.20
2023-12-05T07:58:16.647Z,9.73
2023-12-05T08:00:45.338Z,10.27
2023-12-05T08:03:15.977Z,9.80
2023-12-05T08:05:44.826Z,9.70
2023-12-05T08:08:13.486Z,10.70
2023-12-05T08:10:42.126Z,8.83
2023-12-05T08:13:10.814Z,10.27
2023-12-05T08:15:41.185Z,9.53
2023-12-05T08:18:09.938Z,9.60
2023-12-05T08:20:38.994Z,10.23
2023-12-05T08:23:07.719Z,9.73
2023-12-05T08:25:36.331Z,9.70
2023-12-05T08:28:05.033Z,9.90
2023-12-05T08:30:34.295Z,9.53
2023-12-05T08:33:04.568Z,9.77
2023-12-05T08:35:33.258Z,9.30
2023-12-05T08:38:01.838Z,9.90
2023-12-05T08:40:30.556Z,10.07
2023-12-05T08:42:59.430Z,11.00
2023-12-05T08:45:28.536Z,9.47
2023-12-05T08:47:57.489Z,10.07
2023-12-05T08:50:29.603Z,10.93
2023-12-05T08:52:58.266Z,10.53
2023-12-05T08:55:27.498Z,11.10
2023-12-05T08:57:56.924Z,10.23
2023-12-05T09:00:26.925Z,10.20
2023-12-05T09:02:57.785Z,10.90
2023-12-05T09:05:26.510Z,12.13
2023-12-05T09:07:56.844Z,11.43
2023-12-05T09:10:25.701Z,11.23
2023-12-05T09:12:54.738Z,10.87
2023-12-05T09:15:23.853Z,10.77
2023-12-05T09:17:53.166Z,10.27
2023-12-05T09:20:21.958Z,10.10
2023-12-05T09:22:53.650Z,10.17
2023-12-05T09:25:25.979Z,11.00
2023-12-05T09:27:55.063Z,10.53
2023-12-05T09:30:23.799Z,9.90
2023-12-05T09:32:53.679Z,10.70
2023-12-05T09:35:22.772Z,10.47
2023-12-05T09:37:52.541Z,10.53
2023-12-05T09:40:21.243Z,10.73
2023-12-05T09:42:51.886Z,11.97
2023-12-05T09:45:22.052Z,11.10
2023-12-05T09:47:51.104Z,10.63
2023-12-05T09:50:20.803Z,11.73
2023-12-05T09:52:49.866Z,12.03
2023-12-05T09:55:18.916Z,11.33
2023-12-05T09:57:47.639Z,10.80
2023-12-05T10:00:19.647Z,12.77
2023-12-05T10:02:48.934Z,12.20
2023-12-05T10:05:18.296Z,12.47
2023-12-05T10:07:47.281Z,10.97
2023-12-05T10:10:16.343Z,11.37
2023-12-05T10:12:45.464Z,11.90
2023-12-05T10:15:14.083Z,11.60
2023-12-05T10:17:44.193Z,11.73
2023-12-05T10:20:14.242Z,13.57
2023-12-05T10:22:43.194Z,13.43
2023-12-05T10:25:12.481Z,12.23
2023-12-05T10:27:41.853Z,12.13
2023-12-05T10:30:15.682Z,12.33
2023-12-05T10:32:47.421Z,11.73
2023-12-05T10:35:16.232Z,11.90
2023-12-05T10:37:45.057Z,12.27
2023-12-05T10:40:14.458Z,13.03
2023-12-05T10:42:43.151Z,11.83
2023-12-05T10:45:13.455Z,11.70
2023-12-05T10:47:42.202Z,11.20
2023-12-05T10:50:12.405Z,11.87
2023-12-05T10:52:41.122Z,11.53
2023-12-05T10:55:10.693Z,10.77
2023-12-05T10:57:39.496Z,11.00
2023-12-05T11:00:10.585Z,11.57
2023-12-05T11:02:39.616Z,13.50
2023-12-05T11:05:11.502Z,12.70
2023-12-05T11:07:40.114Z,11.30
2023-12-05T11:10:10.064Z,12.13
2023-12-05T11:12:38.763Z,13.33
2023-12-05T11:15:08.414Z,12.07
2023-12-05T11:17:38.835Z,12.33
2023-12-05T11:20:21.431Z,11.57
2023-12-05T11:22:56.880Z,10.33
2023-12-05T11:25:38.157Z,10.70
2023-12-05T11:28:16.752Z,10.67
2023-12-05T11:30:59.328Z,10.97
2023-12-05T11:33:38.724Z,10.53
2023-12-05T11:36:14.514Z,11.30
2023-12-05T11:38:43.123Z,10.30
2023-12-05T11:41:15.776Z,10.83
2023-12-05T11:43:45.066Z,11.17
2023-12-05T11:46:13.918Z,10.70
2023-12-05T11:48:42.660Z,9.93
2023-12-05T11:51:15.780Z,10.90
2023-12-05T11:53:44.779Z,11.27
2023-12-05T11:56:20.488Z,9.63
2023-12-05T11:58:49.077Z,10.23
2023-12-05T12:01:17.860Z,10.67
2023-12-05T12:03:50.466Z,10.33
2023-12-05T12:06:21.639Z,9.87
2023-12-05T12:08:53.033Z,10.67
2023-12-05T12:11:22.438Z,10.93
2023-12-05T12:13:51.181Z,11.20
2023-12-05T12:16:20.396Z,10.63
2023-12-05T12:18:53.951Z,11.00
2023-12-05T12:21:31.186Z,10.53
2023-12-05T12:24:00.746Z,10.20
2023-12-05T12:26:33.950Z,11.33
2023-12-05T12:29:09.502Z,11.57
2023-12-05T12:31:38.305Z,10.37
2023-12-05T12:34:09.668Z,10.57
2023-12-05T12:36:40.182Z,10.20
2023-12-05T12:39:08.918Z,10.13
2023-12-05T12:41:40.221Z,9.50
2023-12-05T12:44:08.868Z,9.97
2023-12-05T12:46:37.844Z,9.07
2023-12-05T12:49:08.004Z,9.53
2023-12-05T12:51:37.045Z,10.53
2023-12-05T12:54:07.662Z,10.60
2023-12-05T12:56:36.568Z,10.27
2023-12-05T12:59:05.379Z,10.40
2023-12-05T13:01:35.438Z,10.47
2023-12-05T13:04:04.292Z,10.63
2023-12-05T13:06:38.790Z,10.57
2023-12-05T13:09:15.788Z,11.17
2023-12-05T13:11:44.953Z,10.37
2023-12-05T13:14:14.648Z,10.57
2023-12-05T13:16:43.910Z,10.67
2023-12-05T13:19:22.938Z,10.90
2023-12-05T13:21:52.728Z,11.37
2023-12-05T13:24:23.021Z,10.97
2023-12-05T13:26:51.848Z,11.50
2023-12-05T13:29:20.829Z,11.37
2023-12-05T13:31:50.155Z,12.00
2023-12-05T13:34:18.917Z,11.93
2023-12-05T13:36:47.631Z,11.20
2023-12-05T13:39:17.050Z,11.03
2023-12-05T13:41:47.464Z,12.57
2023-12-05T13:44:16.125Z,11.20
2023-12-05T13:46:45.242Z,11.63
2023-12-05T13:49:13.984Z,10.97
2023-12-05T13:51:44.546Z,11.27
2023-12-05T13:54:13.545Z,11.07
2023-12-05T13:56:42.205Z,12.33
2023-12-05T13:59:12.534Z,11.97
2023-12-05T14:01:41.306Z,12.93
2023-12-05T14:04:10.263Z,11.93
2023-12-05T14:06:39.235Z,11.60
2023-12-05T14:09:08.193Z,12.00
2023-12-05T14:11:36.854Z,12.87
2023-12-05T14:14:06.964Z,13.33
2023-12-05T14:16:37.076Z,12.57
2023-12-05T14:19:05.806Z,13.20
2023-12-05T14:21:34.641Z,11.83
2023-12-05T14:24:03.538Z,12.67
2023-12-05T14:26:32.172Z,11.57
2023-12-05T14:29:00.800Z,12.77
2023-12-05T14:31:29.455Z,11.33
2023-12-05T14:33:59.615Z,11.93
2023-12-05T14:36:28.680Z,13.13
2023-12-05T14:39:04.413Z,12.20
2023-12-05T14:41:39.036Z,11.47
2023-12-05T14:44:07.682Z,12.57
2023-12-05T14:46:36.298Z,12.67
2023-12-05T14:49:06.545Z,11.83
2023-12-05T14:51:35.548Z,12.00
2023-12-05T14:54:04.512Z,11.20
2023-12-05T14:56:33.525Z,12.73
2023-12-05T14:59:02.154Z,11.50
2023-12-05T15:01:30.780Z,11.67
2023-12-05T15:03:59.973Z,11.60
2023-12-05T15:06:30.637Z,12.57
2023-12-05T15:09:00.746Z,12.17
2023-12-05T15:11:32.908Z,11.20
2023-12-05T15:14:01.585Z,11.13
2023-12-05T15:16:30.341Z,10.83
2023-12-05T15:18:59.007Z,11.63
2023-12-05T15:21:30.654Z,11.80
2023-12-05T15:24:01.002Z,12.73
2023-12-05T15:26:29.624Z,11.93
2023-12-05T15:28:58.277Z,12.13
2023-12-05T15:31:27.217Z,11.67
2023-12-05T15:33:56.605Z,11.30
2023-12-05T15:36:25.483Z,11.43
2023-12-05T15:38:55.613Z,11.20
2023-12-05T15:41:24.798Z,10.50
2023-12-05T15:43:54.078Z,11.30
2023-12-05T15:46:23.471Z,11.50
2023-12-05T15:48:52.507Z,11.60
2023-12-05T15:51:21.252Z,12.47
2023-12-05T15:53:49.940Z,11.63
2023-12-05T15:56:20.044Z,11.97
2023-12-05T15:58:49.030Z,12.10
2023-12-05T16:01:17.772Z,11.80
2023-12-05T16:03:47.894Z,12.30
2023-12-05T16:06:16.762Z,12.63
2023-12-05T16:08:45.419Z,13.20
2023-12-05T16:11:16.548Z,12.63
2023-12-05T16:13:48.704Z,12.17
2023-12-05T16:16:17.695Z,13.10
2023-12-05T16:18:46.513Z,14.07
2023-12-05T16:21:15.226Z,13.93
2023-12-05T16:23:44.007Z,13.10
2023-12-05T16:26:13.276Z,13.23
2023-12-05T16:28:42.700Z,12.63
2023-12-05T16:31:13.185Z,13.77
2023-12-05T16:33:42.102Z,14.13
2023-12-05T16:36:11.295Z,13.30
2023-12-05T16:38:39.885Z,13.57
2023-12-05T16:41:09.927Z,12.97
2023-12-05T16:43:38.837Z,11.70
2023-12-05T16:46:07.966Z,12.83
2023-12-05T16:48:38.259Z,12.43
2023-12-05T16:51:08.054Z,13.60
2023-12-05T16:53:37.035Z,13.50
2023-12-05T16:56:06.091Z,13.03
2023-12-05T16:58:34.752Z,14.27
2023-12-05T17:01:03.654Z,12.37
2023-12-05T17:03:32.483Z,13.47
2023-12-05T17:06:04.080Z,13.50
2023-12-05T17:08:32.748Z,14.10
2023-12-05T17:11:03.805Z,14.53
2023-12-05T17:13:32.578Z,15.23
2023-12-05T17:16:01.317Z,13.33
2023-12-05T17:18:31.777Z,11.67
2023-12-05T17:21:00.520Z,12.33
2023-12-05T17:23:32.342Z,12.80
2023-12-05T17:26:01.709Z,14.00
2023-12-05T17:28:30.387Z,13.97
2023-12-05T17:30:59.008Z,12.67
2023-12-05T17:33:28.224Z,13.00
2023-12-05T17:35:57.172Z,12.37
2023-12-05T17:38:26.127Z,11.87
2023-12-05T17:40:56.145Z,11.87
2023-12-05T17:43:25.525Z,12.97
2023-12-05T17:45:56.929Z,12.73
2023-12-05T17:48:28.109Z,12.40
2023-12-05T17:50:56.797Z,12.07
2023-12-05T17:53:28.938Z,13.07
2023-12-05T17:55:59.787Z,13.17
2023-12-05T17:58:28.496Z,13.40
2023-12-05T18:00:57.586Z,13.10
2023-12-05T18:03:26.673Z,13.67
2023-12-05T18:05:55.560Z,14.13
2023-12-05T18:08:24.174Z,14.67
2023-12-05T18:10:52.853Z,14.80
2023-12-05T18:13:23.645Z,14.73
2023-12-05T18:15:52.427Z,13.87
2023-12-05T18:18:21.466Z,13.17
2023-12-05T18:20:50.170Z,14.23
2023-12-05T18:23:18.874Z,13.87
2023-12-05T18:25:48.277Z,13.90
2023-12-05T18:28:17.350Z,13.87
2023-12-05T18:30:48.085Z,13.20
2023-12-05T18:33:16.840Z,14.10
2023-12-05T18:35:45.583Z,13.90
2023-12-05T18:38:14.218Z,14.97
2023-12-05T18:40:42.855Z,14.13
2023-12-05T18:43:11.519Z,14.20
2023-12-05T18:45:40.504Z,14.97
2023-12-05T18:48:10.798Z,15.17
2023-12-05T18:50:39.432Z,15.03
2023-12-05T18:53:08.033Z,14.80
2023-12-05T18:55:36.742Z,13.67
2023-12-05T18:58:05.469Z,17.43
2023-12-05T19:00:37.015Z,16.40
2023-12-05T19:03:07.425Z,14.80
2023-12-05T19:05:37.536Z,15.00
2023-12-05T19:08:06.862Z,13.63
2023-12-05T19:10:36.018Z,14.43
2023-12-05T19:13:05.005Z,13.90
2023-12-05T19:15:33.699Z,15.10
2023-12-05T19:18:03.093Z,13.40
2023-12-05T19:20:31.952Z,14.87
2023-12-05T19:23:02.301Z,13.70
2023-12-05T19:25:31.047Z,14.07
2023-12-05T19:27:59.968Z,12.57
2023-12-05T19:30:28.821Z,13.77
2023-12-05T19:32:58.967Z,13.07
2023-12-05T19:35:30.176Z,13.53
2023-12-05T19:37:58.948Z,13.70
2023-12-05T19:40:29.068Z,13.63
2023-12-05T19:42:57.716Z,13.70
2023-12-05T19:45:26.397Z,14.27
2023-12-05T19:47:55.448Z,14.20
2023-12-05T19:50:24.729Z,13.77
2023-12-05T19:52:53.825Z,13.53
2023-12-05T19:55:22.521Z,14.07
2023-12-05T19:57:52.750Z,13.43
2023-12-05T20:00:21.517Z,13.57
2023-12-05T20:02:50.144Z,14.13
2023-12-05T20:05:18.871Z,13.60
2023-12-05T20:07:47.490Z,13.70
2023-12-05T20:10:16.616Z,12.97
2023-12-05T20:12:45.311Z,12.83
2023-12-05T20:15:15.781Z,13.20
2023-12-05T20:17:44.498Z,13.07
2023-12-05T20:20:13.891Z,13.33
2023-12-05T20:22:42.584Z,13.30
2023-12-05T20:25:11.617Z,12.93
2023-12-05T20:27:40.279Z,13.10
2023-12-05T20:30:10.231Z,12.73
2023-12-05T20:32:40.307Z,13.50
2023-12-05T20:35:10.306Z,12.13
2023-12-05T20:37:39.277Z,12.30
2023-12-05T20:40:08.989Z,11.83
2023-12-05T20:42:37.834Z,12.50
2023-12-05T20:45:08.065Z,11.93
2023-12-05T20:47:36.978Z,12.07
2023-12-05T20:50:09.031Z,11.87
2023-12-05T20:52:37.639Z,10.53
2023-12-05T20:55:09.223Z,11.30
2023-12-05T20:57:38.065Z,11.30
2023-12-05T21:00:09.190Z,11.37
2023-12-05T21:02:38.118Z,11.17
2023-12-05T21:05:09.482Z,11.03
2023-12-05T21:07:38.210Z,11.67
2023-12-05T21:10:08.299Z,13.63
2023-12-05T21:12:36.934Z,11.60
2023-12-05T21:15:06.405Z,11.00
2023-12-05T21:17:35.651Z,10.73
2023-12-05T21:20:06.408Z,11.43
2023-12-05T21:22:36.449Z,10.87
2023-12-05T21:25:05.951Z,11.20
2023-12-05T21:27:36.447Z,10.97
2023-12-05T21:30:06.306Z,12.40
2023-12-05T21:32:34.961Z,12.47
2023-12-05T21:35:03.650Z,12.23
2023-12-05T21:37:32.301Z,11.73
2023-12-05T21:40:02.526Z,11.47
2023-12-05T21:42:32.065Z,12.30
2023-12-05T21:45:01.065Z,12.23
2023-12-05T21:47:29.672Z,11.23
2023-12-05T21:49:58.636Z,13.80
2023-12-05T21:52:27.689Z,12.30
2023-12-05T21:54:56.498Z,12.97
2023-12-05T21:57:26.606Z,12.10
2023-12-05T21:59:55.298Z,12.50
2023-12-05T22:02:24.023Z,12.30
2023-12-05T22:04:53.868Z,12.73
2023-12-05T22:07:22.960Z,12.37
2023-12-05T22:09:52.374Z,12.27
2023-12-05T22:12:21.023Z,11.77
2023-12-05T22:14:51.302Z,11.77
2023-12-05T22:17:20.085Z,12.27
2023-12-05T22:19:48.818Z,12.90
2023-12-05T22:22:17.735Z,11.97
2023-12-05T22:24:46.470Z,12.50
2023-12-05T22:27:15.917Z,12.13
2023-12-05T22:29:46.611Z,11.67
2023-12-05T22:32:17.472Z,11.23
2023-12-05T22:34:46.183Z,13.27
2023-12-05T22:37:15.298Z,13.20
2023-12-05T22:39:43.979Z,12.47
2023-12-05T22:42:12.872Z,11.70
2023-12-05T22:44:44.537Z,12.57
2023-12-05T22:47:13.217Z,12.57
2023-12-05T22:49:47.141Z,12.87
2023-12-05T22:52:16.525Z,11.90
2023-12-05T22:54:45.244Z,12.27
2023-12-05T22:57:13.947Z,12.17
2023-12-05T22:59:42.577Z,12.17
2023-12-05T23:02:11.494Z,12.07
2023-12-05T23:04:40.436Z,12.77
2023-12-05T23:07:10.522Z,11.50
2023-12-05T23:09:40.064Z,12.17
2023-12-05T23:12:09.471Z,12.47
2023-12-05T23:14:38.140Z,11.27
2023-12-05T23:17:07.782Z,11.53
2023-12-05T23:19:36.985Z,11.50
2023-12-05T23:22:05.879Z,11.40
2023-12-05T23:24:35.953Z,11.67
2023-12-05T23:27:05.018Z,10.57
2023-12-05T23:29:33.719Z,11.83
2023-12-05T23:32:02.365Z,11.43
2023-12-05T23:34:30.990Z,11.37
2023-12-05T23:36:59.765Z,11.37
2023-12-05T23:39:28.413Z,11.00
2023-12-05T23:41:58.548Z,11.53
2023-12-05T23:44:27.443Z,10.90
2023-12-05T23:46:56.445Z,10.40
2023-12-05T23:49:25.124Z,10.97
2023-12-05T23:51:53.822Z,11.90
2023-12-05T23:54:22.461Z,10.37
2023-12-05T23:56:51.221Z,11.70
2023-12-05T23:59:21.345Z,10.87
